createdAt,value
2022-10-17T00:01:11.440Z,2.07
2022-10-17T00:03:41.018Z,2.00
2022-10-17T00:06:12.928Z,1.83
2022-10-17T00:08:46.124Z,1.70
2022-10-17T00:11:18.790Z,1.97
2022-10-17T00:13:48.034Z,1.93
2022-10-17T00:16:17.090Z,1.80
2022-10-17T00:18:45.146Z,1.67
2022-10-17T00:21:17.580Z,1.93
2022-10-17T00:23:47.842Z,1.80
2022-10-17T00:26:16.836Z,1.87
2022-10-17T00:28:47.920Z,1.97
2022-10-17T00:31:18.201Z,1.70
2022-10-17T00:33:46.559Z,1.93
2022-10-17T00:36:19.860Z,1.60
2022-10-17T00:38:54.083Z,1.80
2022-10-17T00:41:25.358Z,2.07
2022-10-17T00:43:57.708Z,1.63
2022-10-17T00:46:28.663Z,1.83
2022-10-17T00:49:01.544Z,1.90
2022-10-17T00:51:35.680Z,1.80
2022-10-17T00:54:05.965Z,1.90
2022-10-17T00:56:35.099Z,1.90
2022-10-17T00:59:03.977Z,1.87
2022-10-17T01:01:32.295Z,1.80
2022-10-17T01:04:00.929Z,2.07
2022-10-17T01:06:29.380Z,1.50
2022-10-17T01:08:57.875Z,1.90
2022-10-17T01:11:40.579Z,1.50
2022-10-17T01:14:19.597Z,1.70
2022-10-17T01:16:57.977Z,1.80
2022-10-17T01:19:50.910Z,1.97
2022-10-17T01:22:26.603Z,1.87
2022-10-17T01:25:24.716Z,1.60
2022-10-17T01:28:19.219Z,1.50
2022-10-17T01:31:14.839Z,1.70
2022-10-17T01:34:02.252Z,1.73
2022-10-17T01:36:41.894Z,1.80
2022-10-17T01:39:19.598Z,1.60
2022-10-17T01:41:56.571Z,1.83
2022-10-17T01:44:34.490Z,2.07
2022-10-17T01:47:09.086Z,1.83
2022-10-17T01:49:41.602Z,2.17
2022-10-17T01:52:14.370Z,1.70
2022-10-17T01:54:47.658Z,1.60
2022-10-17T01:57:27.948Z,1.50
2022-10-17T01:59:57.547Z,1.73
2022-10-17T02:02:28.496Z,2.00
2022-10-17T02:04:57.911Z,1.90
2022-10-17T02:07:26.534Z,1.70
2022-10-17T02:09:54.791Z,1.50
2022-10-17T02:12:46.243Z,1.70
2022-10-17T02:16:02.089Z,1.67
2022-10-17T02:18:58.705Z,1.90
2022-10-17T02:21:37.514Z,1.70
2022-10-17T02:24:18.420Z,1.90
2022-10-17T02:26:54.296Z,1.80
2022-10-17T02:29:28.917Z,2.07
2022-10-17T02:32:02.030Z,2.00
2022-10-17T02:34:36.212Z,2.20
2022-10-17T02:37:08.300Z,1.83
2022-10-17T02:39:39.799Z,1.57
2022-10-17T02:42:12.219Z,1.93
2022-10-17T02:44:44.247Z,1.87
2022-10-17T02:47:22.838Z,1.70
2022-10-17T02:49:56.746Z,2.00
2022-10-17T02:52:35.035Z,2.33
2022-10-17T02:55:12.509Z,1.57
2022-10-17T02:57:46.980Z,1.87
2022-10-17T03:00:17.522Z,2.03
2022-10-17T03:02:50.914Z,1.50
2022-10-17T03:05:24.576Z,1.70
2022-10-17T03:07:54.175Z,1.80
2022-10-17T03:10:22.665Z,2.07
2022-10-17T03:12:51.017Z,1.77
2022-10-17T03:15:20.075Z,2.00
2022-10-17T03:17:48.346Z,1.87
2022-10-17T03:20:16.612Z,1.90
2022-10-17T03:22:46.014Z,1.87
2022-10-17T03:25:14.156Z,1.60
2022-10-17T03:27:42.356Z,1.70
2022-10-17T03:30:11.561Z,1.50
2022-10-17T03:32:40.451Z,1.80
2022-10-17T03:35:13.994Z,1.77
2022-10-17T03:37:47.066Z,1.77
2022-10-17T03:40:16.499Z,2.00
2022-10-17T03:42:45.053Z,1.70
2022-10-17T03:45:13.155Z,2.00
2022-10-17T03:47:41.345Z,2.10
2022-10-17T03:50:10.526Z,1.90
2022-10-17T03:52:40.114Z,1.90
2022-10-17T03:55:10.314Z,1.93
2022-10-17T03:57:41.068Z,2.00
2022-10-17T04:00:13.621Z,1.97
2022-10-17T04:02:51.869Z,1.73
2022-10-17T04:05:20.724Z,2.00
2022-10-17T04:07:49.352Z,1.77
2022-10-17T04:10:20.475Z,2.13
2022-10-17T04:12:48.863Z,2.10
2022-10-17T04:15:17.079Z,2.00
2022-10-17T04:17:48.508Z,2.20
2022-10-17T04:20:17.398Z,2.07
2022-10-17T04:22:45.455Z,2.37
2022-10-17T04:25:14.907Z,1.87
2022-10-17T04:27:48.937Z,2.00
2022-10-17T04:30:17.654Z,2.10
2022-10-17T04:32:46.193Z,2.00
2022-10-17T04:35:19.891Z,2.43
2022-10-17T04:37:53.030Z,2.27
2022-10-17T04:40:22.354Z,2.30
2022-10-17T04:42:54.522Z,1.70
2022-10-17T04:45:27.972Z,1.90
2022-10-17T04:48:01.406Z,2.00
2022-10-17T04:50:29.532Z,1.83
2022-10-17T04:53:23.915Z,1.77
2022-10-17T04:55:52.513Z,2.30
2022-10-17T04:58:22.178Z,2.00
2022-10-17T05:00:51.615Z,2.00
2022-10-17T05:03:23.671Z,1.73
2022-10-17T05:05:51.978Z,2.10
2022-10-17T05:08:20.193Z,2.13
2022-10-17T05:10:48.235Z,2.03
2022-10-17T05:13:17.033Z,1.83
2022-10-17T05:15:46.395Z,1.90
2022-10-17T05:18:14.480Z,1.90
2022-10-17T05:20:44.794Z,2.00
2022-10-17T05:23:12.939Z,1.70
2022-10-17T05:25:44.073Z,2.20
2022-10-17T05:28:12.910Z,2.00
2022-10-17T05:30:43.279Z,1.90
2022-10-17T05:33:12.804Z,2.00
2022-10-17T05:35:41.624Z,2.37
2022-10-17T05:38:09.855Z,2.20
2022-10-17T05:40:39.477Z,2.00
2022-10-17T05:43:07.812Z,2.20
2022-10-17T05:45:37.301Z,2.20
2022-10-17T05:48:06.312Z,2.07
2022-10-17T05:50:35.919Z,1.93
2022-10-17T05:53:11.627Z,2.10
2022-10-17T05:55:45.880Z,2.30
2022-10-17T05:58:21.873Z,1.90
2022-10-17T06:00:59.751Z,2.03
2022-10-17T06:03:28.772Z,2.10
2022-10-17T06:06:03.610Z,2.10
2022-10-17T06:08:31.672Z,2.30
2022-10-17T06:11:03.868Z,2.03
2022-10-17T06:13:34.445Z,1.97
2022-10-17T06:16:09.442Z,1.80
2022-10-17T06:18:37.612Z,2.00
2022-10-17T06:21:11.125Z,2.20
2022-10-17T06:23:43.911Z,2.33
2022-10-17T06:26:18.393Z,1.97
2022-10-17T06:28:47.101Z,2.00
2022-10-17T06:31:17.811Z,1.90
2022-10-17T06:33:46.300Z,2.10
2022-10-17T06:36:16.414Z,1.93
2022-10-17T06:38:46.557Z,1.87
2022-10-17T06:41:21.982Z,2.30
2022-10-17T06:43:53.506Z,2.10
2022-10-17T06:46:47.960Z,2.10
2022-10-17T06:49:18.287Z,2.40
2022-10-17T06:52:14.657Z,2.13
2022-10-17T06:54:52.768Z,2.40
2022-10-17T06:57:41.458Z,2.30
2022-10-17T07:00:28.365Z,2.23
2022-10-17T07:02:58.269Z,2.50
2022-10-17T07:05:26.312Z,1.97
2022-10-17T07:07:55.678Z,2.20
2022-10-17T07:10:49.731Z,2.37
2022-10-17T07:13:19.310Z,2.30
2022-10-17T07:15:48.086Z,2.20
2022-10-17T07:18:16.196Z,2.10
2022-10-17T07:20:44.368Z,2.30
2022-10-17T07:23:13.818Z,2.07
2022-10-17T07:25:42.101Z,2.10
2022-10-17T07:28:11.236Z,2.17
2022-10-17T07:30:40.011Z,1.60
2022-10-17T07:33:11.242Z,2.00
2022-10-17T07:35:41.817Z,2.43
2022-10-17T07:38:10.187Z,1.97
2022-10-17T07:40:39.866Z,1.73
2022-10-17T07:43:07.981Z,2.03
2022-10-17T07:45:36.026Z,1.67
2022-10-17T07:48:04.340Z,1.80
2022-10-17T07:50:33.084Z,2.20
2022-10-17T07:53:01.254Z,1.83
2022-10-17T07:55:29.384Z,2.00
2022-10-17T07:58:00.377Z,1.70
2022-10-17T08:00:28.721Z,2.60
2022-10-17T08:02:56.808Z,1.70
2022-10-17T08:05:24.884Z,2.03
2022-10-17T08:07:52.974Z,2.23
2022-10-17T08:10:21.425Z,1.93
2022-10-17T08:12:49.573Z,1.80
2022-10-17T08:15:19.191Z,1.70
2022-10-17T08:17:47.248Z,1.93
2022-10-17T08:20:15.310Z,2.00
2022-10-17T08:22:43.823Z,1.70
2022-10-17T08:25:11.940Z,2.07
2022-10-17T08:27:40.042Z,1.70
2022-10-17T08:30:10.018Z,1.60
2022-10-17T08:32:39.364Z,2.03
2022-10-17T08:35:08.675Z,1.93
2022-10-17T08:37:37.222Z,1.87
2022-10-17T08:40:07.195Z,1.80
2022-10-17T08:43:05.849Z,1.80
2022-10-17T08:45:39.922Z,1.80
2022-10-17T08:48:13.806Z,1.73
2022-10-17T08:50:46.582Z,1.93
2022-10-17T08:53:21.815Z,1.70
2022-10-17T08:55:52.068Z,1.73
2022-10-17T08:58:24.561Z,1.70
2022-10-17T09:01:09.049Z,1.60
2022-10-17T09:03:53.872Z,1.80
2022-10-17T09:06:29.878Z,1.90
2022-10-17T09:09:22.336Z,1.80
2022-10-17T09:12:04.490Z,1.80
2022-10-17T09:14:56.299Z,1.70
2022-10-17T09:17:39.205Z,1.43
2022-10-17T09:20:15.976Z,1.60
2022-10-17T09:22:50.885Z,1.53
2022-10-17T09:25:21.718Z,1.77
2022-10-17T09:27:53.530Z,1.93
2022-10-17T09:30:45.928Z,1.57
2022-10-17T09:33:35.137Z,1.80
2022-10-17T09:36:15.016Z,1.60
2022-10-17T09:38:48.343Z,1.67
2022-10-17T09:44:22.816Z,1.50
2022-10-17T09:47:10.035Z,1.40
2022-10-17T09:49:40.628Z,1.40
2022-10-17T09:52:17.789Z,1.77
2022-10-17T09:54:49.386Z,1.50
2022-10-17T09:57:20.101Z,1.90
2022-10-17T09:59:58.631Z,1.57
2022-10-17T10:02:29.948Z,1.90
2022-10-17T10:05:04.056Z,1.63
2022-10-17T10:07:37.162Z,1.50
2022-10-17T10:10:09.034Z,1.60
2022-10-17T10:12:40.413Z,1.30
2022-10-17T10:15:40.969Z,1.40
2022-10-17T10:18:33.761Z,1.50
2022-10-17T10:21:12.553Z,1.50
2022-10-17T10:23:43.793Z,1.60
2022-10-17T10:26:23.598Z,1.80
2022-10-17T10:28:59.522Z,1.43
2022-10-17T10:31:32.057Z,1.43
2022-10-17T10:34:22.721Z,1.30
2022-10-17T10:36:57.327Z,1.50
2022-10-17T10:39:43.146Z,1.30
2022-10-17T10:42:24.093Z,1.63
2022-10-17T10:44:54.309Z,1.80
2022-10-17T10:47:27.385Z,1.50
2022-10-17T10:50:23.913Z,1.60
2022-10-17T10:53:10.899Z,1.50
2022-10-17T10:55:49.234Z,1.40
2022-10-17T10:58:33.717Z,1.47
2022-10-17T11:01:20.193Z,1.67
2022-10-17T11:04:02.036Z,1.40
2022-10-17T11:06:36.879Z,1.40
2022-10-17T11:09:19.192Z,1.50
2022-10-17T11:11:55.635Z,1.83
2022-10-17T11:14:35.795Z,1.60
2022-10-17T11:17:13.581Z,1.40
2022-10-17T11:19:49.499Z,1.70
2022-10-17T11:22:28.176Z,1.50
2022-10-17T11:25:03.047Z,1.60
2022-10-17T11:27:34.892Z,1.60
2022-10-17T11:30:03.763Z,1.53
2022-10-17T11:32:39.976Z,1.53
2022-10-17T11:35:20.658Z,1.30
2022-10-17T11:37:57.168Z,1.47
2022-10-17T11:40:34.337Z,1.33
2022-10-17T11:43:12.153Z,1.73
2022-10-17T11:45:46.718Z,1.47
2022-10-17T11:48:22.434Z,1.80
2022-10-17T11:53:55.340Z,1.47
2022-10-17T11:56:30.810Z,1.40
2022-10-17T11:59:28.261Z,1.10
2022-10-17T12:02:02.121Z,1.50
2022-10-17T12:04:49.617Z,1.53
2022-10-17T12:07:26.625Z,1.47
2022-10-17T12:10:04.380Z,1.30
2022-10-17T12:12:35.544Z,1.40
2022-10-17T12:15:32.532Z,1.20
2022-10-17T12:18:02.986Z,1.30
2022-10-17T12:20:34.711Z,1.03
2022-10-17T12:23:28.895Z,1.30
2022-10-17T12:26:03.309Z,1.20
2022-10-17T12:28:34.395Z,1.20
2022-10-17T12:31:09.909Z,1.33
2022-10-17T12:33:49.226Z,1.33
2022-10-17T12:36:48.018Z,1.10
2022-10-17T12:39:43.686Z,1.00
2022-10-17T12:42:49.176Z,1.50
2022-10-17T12:45:47.045Z,1.67
2022-10-17T12:49:02.157Z,1.90
2022-10-17T12:51:38.161Z,1.60
2022-10-17T12:54:13.712Z,1.47
2022-10-17T12:56:45.496Z,1.70
2022-10-17T12:59:18.762Z,2.07
2022-10-17T13:01:51.048Z,1.40
2022-10-17T13:04:21.454Z,1.57
2022-10-17T13:06:54.126Z,1.50
2022-10-17T13:09:31.251Z,1.70
2022-10-17T13:12:04.374Z,1.30
2022-10-17T13:14:34.940Z,1.27
2022-10-17T13:17:06.336Z,1.27
2022-10-17T13:19:44.830Z,1.63
2022-10-17T13:22:17.564Z,1.40
2022-10-17T13:24:46.713Z,1.40
2022-10-17T13:27:28.466Z,1.30
2022-10-17T13:29:58.471Z,1.50
2022-10-17T13:32:36.233Z,1.30
2022-10-17T13:35:11.658Z,1.30
2022-10-17T13:37:42.524Z,1.63
2022-10-17T13:40:40.886Z,1.40
2022-10-17T13:43:19.790Z,1.20
2022-10-17T13:45:51.417Z,1.60
2022-10-17T13:48:22.868Z,1.30
2022-10-17T13:50:56.349Z,1.40
2022-10-17T13:53:31.146Z,1.40
2022-10-17T13:56:26.498Z,1.30
2022-10-17T13:58:53.950Z,1.60
2022-10-17T14:01:23.074Z,1.80
2022-10-17T14:04:01.135Z,1.93
2022-10-17T14:06:45.121Z,1.60
2022-10-17T14:09:23.276Z,1.83
2022-10-17T14:12:02.760Z,1.60
2022-10-17T14:14:41.664Z,1.63
2022-10-17T14:17:26.146Z,1.77
2022-10-17T14:20:16.070Z,1.50
2022-10-17T14:22:50.661Z,1.43
2022-10-17T14:25:30.702Z,1.67
2022-10-17T14:28:08.069Z,1.70
2022-10-17T14:30:55.667Z,2.00
2022-10-17T14:33:28.084Z,1.83
2022-10-17T14:35:58.643Z,1.70
2022-10-17T14:38:30.630Z,1.47
2022-10-17T14:41:37.335Z,1.70
2022-10-17T14:44:02.614Z,1.63
2022-10-17T14:46:31.134Z,1.77
2022-10-17T14:49:06.942Z,1.70
2022-10-17T14:51:44.840Z,1.80
2022-10-17T14:54:29.066Z,1.70
2022-10-17T14:56:57.339Z,1.60
2022-10-17T14:59:52.134Z,1.53
2022-10-17T15:02:15.312Z,1.43
2022-10-17T15:04:43.444Z,1.47
2022-10-17T15:07:15.981Z,1.80
2022-10-17T15:09:48.518Z,1.80
2022-10-17T15:12:19.519Z,2.33
2022-10-17T15:14:50.175Z,2.30
2022-10-17T15:17:21.540Z,2.30
2022-10-17T15:19:50.488Z,2.10
2022-10-17T15:22:19.110Z,1.40
2022-10-17T15:24:48.744Z,1.70
2022-10-17T15:27:18.682Z,1.20
2022-10-17T15:29:47.631Z,1.33
2022-10-17T15:32:16.126Z,1.40
2022-10-17T15:34:44.853Z,1.60
2022-10-17T15:37:21.924Z,1.67
2022-10-17T15:39:54.660Z,1.43
2022-10-17T15:42:27.569Z,1.60
2022-10-17T15:44:55.796Z,1.60
2022-10-17T15:47:26.832Z,1.90
2022-10-17T15:49:56.066Z,1.90
2022-10-17T15:52:24.949Z,2.37
2022-10-17T15:54:57.283Z,2.47
2022-10-17T15:57:31.663Z,2.47
2022-10-17T16:00:01.560Z,3.17
2022-10-17T16:02:29.693Z,4.00
2022-10-17T16:04:57.792Z,6.77
2022-10-17T16:07:25.933Z,6.57
2022-10-17T16:09:55.340Z,4.03
2022-10-17T16:12:31.077Z,4.33
2022-10-17T16:14:59.349Z,2.60
2022-10-17T16:17:27.610Z,1.90
2022-10-17T16:19:56.081Z,1.53
2022-10-17T16:22:32.255Z,2.20
2022-10-17T16:25:09.285Z,1.70
2022-10-17T16:27:38.286Z,1.93
2022-10-17T16:30:08.975Z,2.00
2022-10-17T16:32:37.093Z,1.67
2022-10-17T16:35:06.868Z,1.80
2022-10-17T16:37:35.775Z,1.80
2022-10-17T16:40:06.259Z,1.60
2022-10-17T16:42:34.337Z,1.90
2022-10-17T16:45:02.704Z,1.77
2022-10-17T16:47:31.316Z,1.90
2022-10-17T16:49:59.353Z,2.00
2022-10-17T16:52:27.538Z,2.00
2022-10-17T16:54:55.921Z,2.20
2022-10-17T16:57:25.282Z,2.33
2022-10-17T16:59:53.318Z,2.27
2022-10-17T17:02:21.679Z,3.30
2022-10-17T17:04:49.762Z,3.40
2022-10-17T17:07:18.496Z,3.10
2022-10-17T17:09:46.587Z,2.63
2022-10-17T17:12:14.733Z,2.80
2022-10-17T17:14:44.156Z,3.27
2022-10-17T17:17:19.628Z,4.30
2022-10-17T17:20:00.408Z,3.00
2022-10-17T17:22:28.446Z,2.83
2022-10-17T17:24:56.479Z,2.70
2022-10-17T17:27:25.124Z,3.03
2022-10-17T17:29:54.491Z,2.20
2022-10-17T17:32:22.615Z,2.60
2022-10-17T17:34:50.598Z,2.50
2022-10-17T17:37:18.599Z,2.77
2022-10-17T17:39:46.733Z,2.97
2022-10-17T17:42:14.889Z,3.33
2022-10-17T17:44:42.924Z,2.87
2022-10-17T17:47:12.393Z,2.47
2022-10-17T17:49:40.425Z,2.37
2022-10-17T17:52:08.491Z,3.70
2022-10-17T17:54:40.054Z,2.67
2022-10-17T17:57:09.223Z,2.73
2022-10-17T17:59:41.146Z,3.07
2022-10-17T18:02:10.434Z,2.43
2022-10-17T18:04:39.957Z,2.20
2022-10-17T18:07:08.130Z,2.30
2022-10-17T18:09:36.160Z,2.30
2022-10-17T18:12:04.433Z,2.37
2022-10-17T18:14:32.431Z,2.63
2022-10-17T18:17:00.503Z,3.50
2022-10-17T18:19:29.086Z,2.80
2022-10-17T18:21:58.452Z,3.13
2022-10-17T18:24:26.621Z,2.87
2022-10-17T18:26:59.540Z,2.40
2022-10-17T18:29:29.350Z,3.03
2022-10-17T18:31:57.534Z,3.40
2022-10-17T18:34:27.156Z,2.57
2022-10-17T18:36:55.451Z,2.77
2022-10-17T18:39:25.185Z,2.87
2022-10-17T18:41:53.543Z,3.53
2022-10-17T18:44:21.636Z,2.60
2022-10-17T18:46:49.972Z,2.87
2022-10-17T18:49:20.383Z,2.77
2022-10-17T18:51:48.541Z,2.57
2022-10-17T18:54:20.440Z,2.50
2022-10-17T18:56:52.180Z,2.57
2022-10-17T18:59:21.004Z,2.60
2022-10-17T19:01:49.743Z,2.63
2022-10-17T19:04:18.110Z,2.70
2022-10-17T19:06:46.420Z,2.90
2022-10-17T19:09:17.765Z,2.50
2022-10-17T19:11:45.854Z,2.67
2022-10-17T19:14:15.385Z,2.83
2022-10-17T19:16:46.542Z,2.60
2022-10-17T19:19:19.548Z,2.70
2022-10-17T19:21:48.814Z,3.60
2022-10-17T19:24:19.681Z,2.90
2022-10-17T19:26:50.550Z,2.70
2022-10-17T19:29:21.438Z,2.77
2022-10-17T19:31:50.254Z,2.90
2022-10-17T19:34:19.749Z,2.80
2022-10-17T19:36:48.428Z,2.73
2022-10-17T19:39:19.043Z,2.70
2022-10-17T19:41:49.158Z,2.60
2022-10-17T19:44:19.309Z,2.80
2022-10-17T19:46:49.011Z,2.87
2022-10-17T19:49:18.579Z,2.80
2022-10-17T19:51:46.729Z,3.30
2022-10-17T19:54:18.123Z,3.60
2022-10-17T19:56:46.137Z,2.70
2022-10-17T19:59:16.314Z,3.00
2022-10-17T20:01:46.630Z,2.90
2022-10-17T20:04:14.964Z,3.30
2022-10-17T20:06:43.221Z,2.67
2022-10-17T20:09:17.361Z,2.67
2022-10-17T20:11:46.169Z,3.50
2022-10-17T20:14:18.766Z,3.83
2022-10-17T20:16:53.359Z,3.87
2022-10-17T20:19:21.831Z,3.80
2022-10-17T20:21:49.882Z,3.63
2022-10-17T20:24:18.758Z,3.83
2022-10-17T20:26:47.306Z,3.27
2022-10-17T20:29:19.349Z,2.70
2022-10-17T20:31:49.753Z,3.30
2022-10-17T20:34:19.805Z,3.23
2022-10-17T20:36:48.797Z,3.23
2022-10-17T20:39:20.970Z,2.60
2022-10-17T20:41:49.338Z,2.30
2022-10-17T20:44:17.446Z,3.47
2022-10-17T20:47:00.613Z,3.27
2022-10-17T20:49:33.508Z,4.07
2022-10-17T20:52:02.562Z,4.10
2022-10-17T20:54:31.269Z,3.00
2022-10-17T20:57:02.491Z,3.23
2022-10-17T20:59:34.246Z,3.13
2022-10-17T21:02:02.366Z,2.90
2022-10-17T21:04:46.036Z,3.47
2022-10-17T21:07:15.750Z,3.37
2022-10-17T21:09:43.908Z,3.33
2022-10-17T21:12:18.108Z,3.43
2022-10-17T21:14:54.337Z,3.00
2022-10-17T21:17:22.482Z,3.93
2022-10-17T21:19:52.064Z,3.00
2022-10-17T21:22:20.152Z,5.23
2022-10-17T21:24:48.207Z,4.07
2022-10-17T21:27:19.505Z,3.00
2022-10-17T21:29:48.724Z,3.27
2022-10-17T21:32:31.832Z,3.50
2022-10-17T21:35:07.794Z,3.00
2022-10-17T21:37:35.948Z,3.00
2022-10-17T21:40:04.244Z,3.43
2022-10-17T21:42:32.597Z,3.30
2022-10-17T21:45:00.843Z,3.87
2022-10-17T21:47:29.588Z,2.93
2022-10-17T21:49:57.595Z,2.87
2022-10-17T21:52:27.033Z,2.97
2022-10-17T21:54:55.098Z,3.30
2022-10-17T21:57:23.144Z,3.10
2022-10-17T21:59:51.213Z,3.03
2022-10-17T22:02:19.258Z,3.10
2022-10-17T22:04:47.326Z,2.97
2022-10-17T22:07:15.412Z,3.03
2022-10-17T22:09:45.110Z,3.10
2022-10-17T22:12:13.225Z,2.80
2022-10-17T22:14:41.321Z,3.00
2022-10-17T22:17:09.371Z,3.17
2022-10-17T22:19:37.486Z,3.27
2022-10-17T22:22:05.528Z,3.30
2022-10-17T22:24:33.717Z,3.40
2022-10-17T22:27:03.132Z,3.37
2022-10-17T22:29:31.378Z,3.23
2022-10-17T22:31:59.437Z,3.43
2022-10-17T22:34:27.665Z,3.40
2022-10-17T22:36:55.746Z,2.97
2022-10-17T22:39:23.785Z,2.93
2022-10-17T22:41:51.810Z,3.37
2022-10-17T22:44:21.168Z,2.77
2022-10-17T22:46:49.635Z,3.43
2022-10-17T22:49:17.868Z,3.27
2022-10-17T22:51:45.893Z,2.90
2022-10-17T22:54:13.898Z,3.07
2022-10-17T22:56:42.103Z,3.07
2022-10-17T22:59:10.099Z,3.67
2022-10-17T23:01:39.545Z,3.03
2022-10-17T23:04:07.625Z,2.83
2022-10-17T23:06:35.675Z,3.00
2022-10-17T23:09:03.975Z,3.17
2022-10-17T23:11:31.995Z,3.00
2022-10-17T23:14:00.081Z,3.30
2022-10-17T23:16:28.291Z,3.30
2022-10-17T23:18:58.651Z,2.97
2022-10-17T23:21:26.803Z,3.13
2022-10-17T23:23:54.841Z,2.87
2022-10-17T23:26:22.857Z,3.10
2022-10-17T23:28:55.925Z,3.13
2022-10-17T23:31:24.126Z,3.03
2022-10-17T23:33:52.126Z,2.63
2022-10-17T23:36:22.705Z,2.60
2022-10-17T23:38:53.727Z,2.97
2022-10-17T23:41:24.752Z,3.23
2022-10-17T23:43:52.808Z,2.73
2022-10-17T23:46:20.858Z,3.37
2022-10-17T23:48:48.925Z,3.10
2022-10-17T23:51:17.145Z,3.20
2022-10-17T23:53:46.550Z,2.70
2022-10-17T23:56:15.122Z,2.83
2022-10-17T23:58:43.173Z,2.77
